Gatika, Spain
Current Conditions -  °F | °C
As of 9:00 PM on Wednesday 28 Jan 2015 (Local Time) from LEBB Reporting Station
Broken Clouds Broken Clouds  
Wind Chill: 54°   Ceiling: 3300
Heat Index: 54°   Visibility: 6mi
Dew Point: 48°   Wind: 2mph
Humidity: 82%   Direction: NA
Pressure: 30.15"   Gusts: NA
Location:  43.37°N, 2.87°W
Report Text: LEBB 282000Z VRB02KT 9999 SCT022 BKN033 12/09 Q1021 NOSIG
Loading
Personal Weather Stations






























Interactive Weather Map New forecast layout! Learn more

10-Day Weather Forecast

Advertisements
Track Severe Weather on mobile